createdAt,value
2023-05-05T00:01:06.811Z,98337.00
2023-05-05T00:03:09.480Z,98332.03
2023-05-05T00:05:14.678Z,98332.97
2023-05-05T00:07:19.652Z,98334.66
2023-05-05T00:09:25.108Z,98325.88
2023-05-05T00:11:30.057Z,98325.75
2023-05-05T00:13:35.105Z,98321.53
2023-05-05T00:15:40.480Z,98315.56
2023-05-05T00:17:48.098Z,98321.72
2023-05-05T00:19:52.987Z,98324.53
2023-05-05T00:21:57.932Z,98323.88
2023-05-05T00:24:02.949Z,98318.72
2023-05-05T00:26:07.901Z,98321.53
2023-05-05T00:28:14.306Z,98318.03
2023-05-05T00:30:19.259Z,98325.06
2023-05-05T00:32:24.188Z,98324.09
2023-05-05T00:34:32.050Z,98320.13
2023-05-05T00:36:38.236Z,98317.63
2023-05-05T00:38:43.527Z,98315.06
2023-05-05T00:40:48.412Z,98317.78
2023-05-05T00:42:53.616Z,98310.97
2023-05-05T00:44:58.867Z,98305.84
2023-05-05T00:47:03.645Z,98306.88
2023-05-05T00:49:12.487Z,98305.09
2023-05-05T00:51:22.008Z,98299.75
2023-05-05T00:53:29.668Z,98307.72
2023-05-05T00:55:36.796Z,98300.22
2023-05-05T00:57:41.864Z,98297.00
2023-05-05T00:59:49.433Z,98294.72
2023-05-05T01:01:54.444Z,98294.91
2023-05-05T01:03:59.518Z,98292.63
2023-05-05T01:06:17.344Z,98289.19
2023-05-05T01:08:39.261Z,98292.72
2023-05-05T01:10:47.979Z,98297.09
2023-05-05T01:13:00.328Z,98306.16
2023-05-05T01:15:18.236Z,98296.78
2023-05-05T01:17:31.817Z,98298.03
2023-05-05T01:19:59.600Z,98283.63
2023-05-05T01:22:10.131Z,98292.47
2023-05-05T01:24:56.136Z,98277.88
2023-05-05T01:27:30.289Z,98283.19
2023-05-05T01:29:46.335Z,98289.38
2023-05-05T01:31:57.338Z,98287.00
2023-05-05T01:34:07.020Z,98289.72
2023-05-05T01:36:22.914Z,98291.56
2023-05-05T01:38:35.420Z,98288.84
2023-05-05T01:40:46.701Z,98288.59
2023-05-05T01:42:53.490Z,98286.66
2023-05-05T01:45:00.552Z,98283.03
2023-05-05T01:47:09.572Z,98282.94
2023-05-05T01:49:15.396Z,98286.75
2023-05-05T01:51:22.278Z,98282.69
2023-05-05T01:53:29.322Z,98279.25
2023-05-05T01:55:36.573Z,98281.94
2023-05-05T01:57:43.269Z,98287.16
2023-05-05T01:59:48.168Z,98290.00
2023-05-05T02:01:53.744Z,98286.66
2023-05-05T02:04:02.510Z,98288.16
2023-05-05T02:06:10.145Z,98294.16
2023-05-05T02:08:15.797Z,98287.06
2023-05-05T02:10:21.188Z,98292.56
2023-05-05T02:12:26.373Z,98289.34
2023-05-05T02:14:32.387Z,98295.56
2023-05-05T02:16:41.459Z,98293.13
2023-05-05T02:18:48.922Z,98294.19
2023-05-05T02:20:56.761Z,98289.91
2023-05-05T02:23:02.268Z,98298.69
2023-05-05T02:25:08.433Z,98295.22
2023-05-05T02:27:14.783Z,98299.28
2023-05-05T02:29:22.232Z,98290.25
2023-05-05T02:31:30.626Z,98283.09
2023-05-05T02:33:36.868Z,98281.41
2023-05-05T02:35:44.183Z,98286.47
2023-05-05T02:38:02.933Z,98286.13
2023-05-05T02:40:14.129Z,98278.44
2023-05-05T02:42:22.731Z,98287.00
2023-05-05T02:44:32.026Z,98283.28
2023-05-05T02:46:37.907Z,98290.94
2023-05-05T02:48:46.139Z,98289.78
2023-05-05T02:50:51.299Z,98287.81
2023-05-05T02:53:10.872Z,98290.09
2023-05-05T02:55:16.746Z,98285.91
2023-05-05T02:57:23.713Z,98279.91
2023-05-05T02:59:51.878Z,98279.06
2023-05-05T03:02:13.030Z,98273.13
2023-05-05T03:04:23.697Z,98272.41
2023-05-05T03:06:33.258Z,98281.25
2023-05-05T03:08:52.957Z,98286.31
2023-05-05T03:11:03.359Z,98282.16
2023-05-05T03:13:12.368Z,98283.94
2023-05-05T03:15:22.798Z,98278.81
2023-05-05T03:17:31.042Z,98271.03
2023-05-05T03:19:54.122Z,98267.56
2023-05-05T03:21:59.651Z,98267.25
2023-05-05T03:24:15.893Z,98267.31
2023-05-05T03:26:23.363Z,98267.75
2023-05-05T03:28:28.396Z,98271.25
2023-05-05T03:30:36.158Z,98273.97
2023-05-05T03:32:41.163Z,98275.88
2023-05-05T03:34:46.170Z,98268.22
2023-05-05T03:36:51.032Z,98270.09
2023-05-05T03:38:56.004Z,98273.59
2023-05-05T03:41:03.795Z,98269.63
2023-05-05T03:43:09.868Z,98270.09
2023-05-05T03:45:15.904Z,98271.88
2023-05-05T03:47:20.667Z,98275.66
2023-05-05T03:49:25.697Z,98286.16
2023-05-05T03:51:31.825Z,98282.03
2023-05-05T03:53:40.226Z,98275.81
2023-05-05T03:55:46.173Z,98274.72
2023-05-05T03:57:53.412Z,98284.31
2023-05-05T03:59:58.397Z,98279.84
2023-05-05T04:02:04.674Z,98279.78
2023-05-05T04:04:09.830Z,98276.06
2023-05-05T04:06:14.887Z,98282.03
2023-05-05T04:08:19.735Z,98279.09
2023-05-05T04:10:27.013Z,98283.06
2023-05-05T04:12:32.602Z,98289.50
2023-05-05T04:14:40.200Z,98285.44
2023-05-05T04:16:45.832Z,98291.44
2023-05-05T04:18:50.704Z,98284.53
2023-05-05T04:20:55.724Z,98290.50
2023-05-05T04:23:01.101Z,98291.28
2023-05-05T04:25:06.091Z,98296.34
2023-05-05T04:27:11.413Z,98286.06
2023-05-05T04:29:17.213Z,98284.53
2023-05-05T04:31:24.818Z,98288.06
2023-05-05T04:33:29.772Z,98275.94
2023-05-05T04:35:34.709Z,98283.69
2023-05-05T04:37:41.900Z,98281.22
2023-05-05T04:39:47.202Z,98284.78
2023-05-05T04:41:52.541Z,98287.31
2023-05-05T04:43:59.748Z,98285.56
2023-05-05T04:46:05.208Z,98294.84
2023-05-05T04:48:15.353Z,98291.88
2023-05-05T04:50:20.597Z,98292.91
2023-05-05T04:52:25.865Z,98293.66
2023-05-05T04:54:30.763Z,98294.56
2023-05-05T04:56:36.070Z,98298.19
2023-05-05T04:58:41.036Z,98298.91
2023-05-05T05:00:46.065Z,98297.78
2023-05-05T05:02:51.002Z,98306.06
2023-05-05T05:04:58.575Z,98309.03
2023-05-05T05:07:04.316Z,98313.41
2023-05-05T05:09:09.314Z,98318.13
2023-05-05T05:11:14.300Z,98325.41
2023-05-05T05:13:19.355Z,98328.34
2023-05-05T05:15:24.298Z,98327.34
2023-05-05T05:17:30.627Z,98336.63
2023-05-05T05:19:36.628Z,98336.09
2023-05-05T05:21:44.417Z,98340.44
2023-05-05T05:23:49.287Z,98332.88
2023-05-05T05:25:54.898Z,98334.22
2023-05-05T05:28:09.604Z,98332.28
2023-05-05T05:30:19.449Z,98328.81
2023-05-05T05:32:24.547Z,98335.16
2023-05-05T05:34:29.551Z,98326.97
2023-05-05T05:36:35.290Z,98324.59
2023-05-05T05:38:43.579Z,98325.84
2023-05-05T05:40:48.426Z,98322.50
2023-05-05T05:42:53.334Z,98321.75
2023-05-05T05:44:58.882Z,98319.56
2023-05-05T05:47:04.364Z,98323.19
2023-05-05T05:49:09.365Z,98324.28
2023-05-05T05:51:14.463Z,98329.34
2023-05-05T05:53:19.941Z,98321.25
2023-05-05T05:55:27.525Z,98330.16
2023-05-05T05:57:32.729Z,98330.34
2023-05-05T05:59:41.287Z,98327.84
2023-05-05T06:01:46.466Z,98329.50
2023-05-05T06:03:51.487Z,98336.19
2023-05-05T06:05:56.361Z,98337.84
2023-05-05T06:08:01.256Z,98329.44
2023-05-05T06:10:25.760Z,98327.13
2023-05-05T06:12:41.471Z,98328.63
2023-05-05T06:14:46.710Z,98330.47
2023-05-05T06:16:52.941Z,98333.97
2023-05-05T06:19:00.345Z,98326.00
2023-05-05T06:21:05.313Z,98329.84
2023-05-05T06:23:13.180Z,98323.84
2023-05-05T06:25:22.805Z,98323.31
2023-05-05T06:27:28.758Z,98327.69
2023-05-05T06:29:36.410Z,98325.44
2023-05-05T06:31:41.336Z,98329.78
2023-05-05T06:33:46.280Z,98323.41
2023-05-05T06:35:51.482Z,98322.94
2023-05-05T06:37:56.355Z,98318.81
2023-05-05T06:40:01.423Z,98322.56
2023-05-05T06:42:06.602Z,98324.06
2023-05-05T06:44:11.593Z,98326.25
2023-05-05T06:46:19.253Z,98319.25
2023-05-05T06:48:24.682Z,98318.78
2023-05-05T06:50:29.598Z,98320.94
2023-05-05T06:52:36.986Z,98315.19
2023-05-05T06:54:43.755Z,98318.94
2023-05-05T06:56:48.648Z,98315.69
2023-05-05T06:58:53.508Z,98303.56
2023-05-05T07:00:58.410Z,98314.50
2023-05-05T07:03:06.399Z,98317.25
2023-05-05T07:05:11.984Z,98312.34
2023-05-05T07:07:17.077Z,98310.81
2023-05-05T07:09:22.016Z,98307.25
2023-05-05T07:11:27.019Z,98313.78
2023-05-05T07:13:31.954Z,98306.44
2023-05-05T07:15:36.981Z,98311.91
2023-05-05T07:17:41.898Z,98302.66
2023-05-05T07:19:49.468Z,98297.28
2023-05-05T07:21:55.100Z,98297.53
2023-05-05T07:24:00.145Z,98305.81
2023-05-05T07:26:05.075Z,98306.03
2023-05-05T07:28:10.078Z,98302.25
2023-05-05T07:30:18.387Z,98306.97
2023-05-05T07:32:24.019Z,98316.34
2023-05-05T07:34:28.683Z,98317.59
2023-05-05T07:36:36.292Z,98311.66
2023-05-05T07:38:41.194Z,98317.41
2023-05-05T07:40:46.067Z,98318.94
2023-05-05T07:42:51.162Z,98323.53
2023-05-05T07:44:56.032Z,98311.63
2023-05-05T07:47:03.955Z,98309.25
2023-05-05T07:49:08.941Z,98306.69
2023-05-05T07:51:13.938Z,98305.78
2023-05-05T07:53:21.390Z,98299.00
2023-05-05T07:55:26.262Z,98305.19
2023-05-05T07:57:31.395Z,98301.88
2023-05-05T07:59:36.261Z,98308.53
2023-05-05T08:01:41.262Z,98305.66
2023-05-05T08:03:46.064Z,98311.63
2023-05-05T08:05:51.798Z,98310.31
2023-05-05T08:07:56.925Z,98312.91
2023-05-05T08:10:04.649Z,98301.63
2023-05-05T08:12:10.235Z,98309.59
2023-05-05T08:14:15.375Z,98311.75
2023-05-05T08:16:20.118Z,98307.91
2023-05-05T08:18:25.289Z,98302.03
2023-05-05T08:20:31.280Z,98306.75
2023-05-05T08:22:36.275Z,98300.00
2023-05-05T08:24:41.028Z,98302.53
2023-05-05T08:26:48.477Z,98303.63
2023-05-05T08:28:55.443Z,98306.06
2023-05-05T08:31:00.338Z,98306.25
2023-05-05T08:33:05.356Z,98300.50
2023-05-05T08:35:11.090Z,98307.81
2023-05-05T08:37:19.112Z,98310.34
2023-05-05T08:39:24.065Z,98304.91
2023-05-05T08:41:29.139Z,98300.59
2023-05-05T08:43:36.726Z,98308.28
2023-05-05T08:45:43.839Z,98300.09
2023-05-05T08:47:48.908Z,98302.88
2023-05-05T08:49:56.449Z,98304.44
2023-05-05T08:52:05.883Z,98305.50
2023-05-05T08:54:15.415Z,98304.63
2023-05-05T08:56:22.806Z,98303.78
2023-05-05T08:58:29.027Z,98306.84
2023-05-05T09:00:36.851Z,98304.06
2023-05-05T09:02:43.486Z,98304.28
2023-05-05T09:04:48.573Z,98306.56
2023-05-05T09:06:53.587Z,98301.00
2023-05-05T09:09:01.057Z,98298.56
2023-05-05T09:11:06.730Z,98297.28
2023-05-05T09:13:12.033Z,98301.41
2023-05-05T09:15:17.566Z,98290.63
2023-05-05T09:17:29.679Z,98292.03
2023-05-05T09:19:34.639Z,98289.78
2023-05-05T09:21:49.276Z,98288.63
2023-05-05T09:24:11.069Z,98287.31
2023-05-05T09:26:15.918Z,98285.84
2023-05-05T09:28:21.313Z,98283.81
2023-05-05T09:30:28.093Z,98287.03
2023-05-05T09:32:46.449Z,98283.19
2023-05-05T09:35:00.823Z,98277.78
2023-05-05T09:37:06.885Z,98277.66
2023-05-05T09:39:11.956Z,98269.88
2023-05-05T09:41:16.584Z,98276.84
2023-05-05T09:43:22.780Z,98271.28
2023-05-05T09:45:29.429Z,98263.63
2023-05-05T09:47:40.906Z,98272.41
2023-05-05T09:49:45.868Z,98268.75
2023-05-05T09:51:51.802Z,98261.53
2023-05-05T09:53:56.992Z,98268.94
2023-05-05T09:56:03.075Z,98268.66
2023-05-05T09:58:21.469Z,98266.28
2023-05-05T10:00:41.195Z,98272.13
2023-05-05T10:02:49.001Z,98265.59
2023-05-05T10:05:07.128Z,98269.28
2023-05-05T10:07:25.823Z,98262.56
2023-05-05T10:09:31.892Z,98260.19
2023-05-05T10:11:37.657Z,98262.00
2023-05-05T10:13:44.489Z,98255.34
2023-05-05T10:15:51.741Z,98255.75
2023-05-05T10:18:08.183Z,98253.50
2023-05-05T10:20:16.057Z,98254.88
2023-05-05T10:22:25.469Z,98260.34
2023-05-05T10:24:40.572Z,98251.81
2023-05-05T10:26:49.253Z,98255.56
2023-05-05T10:28:57.663Z,98242.94
2023-05-05T10:31:13.132Z,98243.88
2023-05-05T10:33:39.474Z,98245.78
2023-05-05T10:35:46.955Z,98251.69
2023-05-05T10:37:53.034Z,98252.03
2023-05-05T10:39:58.648Z,98250.19
2023-05-05T10:42:04.937Z,98246.78
2023-05-05T10:44:10.943Z,98243.47
2023-05-05T10:46:16.312Z,98245.00
2023-05-05T10:48:25.734Z,98235.13
2023-05-05T10:50:41.438Z,98231.91
2023-05-05T10:52:56.302Z,98228.75
2023-05-05T10:55:10.781Z,98222.38
2023-05-05T10:57:19.408Z,98227.41
2023-05-05T10:59:42.672Z,98226.97
2023-05-05T11:01:47.618Z,98210.63
2023-05-05T11:03:52.386Z,98220.75
2023-05-05T11:06:15.629Z,98211.59
2023-05-05T11:08:29.744Z,98205.38
2023-05-05T11:10:47.411Z,98204.22
2023-05-05T11:13:23.826Z,98199.53
2023-05-05T11:15:40.888Z,98204.38
2023-05-05T11:17:49.940Z,98193.34
2023-05-05T11:19:55.184Z,98192.50
2023-05-05T11:22:05.874Z,98180.63
2023-05-05T11:24:32.009Z,98186.56
2023-05-05T11:26:52.965Z,98172.25
2023-05-05T11:29:03.360Z,98172.25
2023-05-05T11:31:26.727Z,98172.00
2023-05-05T11:33:32.722Z,98162.66
2023-05-05T11:35:58.864Z,98171.06
2023-05-05T11:38:10.180Z,98171.94
2023-05-05T11:40:24.478Z,98171.88
2023-05-05T11:42:30.451Z,98180.00
2023-05-05T11:44:37.012Z,98181.84
2023-05-05T11:46:43.577Z,98175.59
2023-05-05T11:48:48.865Z,98161.38
2023-05-05T11:50:53.910Z,98164.44
2023-05-05T11:52:58.958Z,98168.97
2023-05-05T11:55:07.356Z,98162.81
2023-05-05T11:57:12.308Z,98165.66
2023-05-05T11:59:17.151Z,98171.09
2023-05-05T12:01:22.075Z,98173.44
2023-05-05T12:03:28.817Z,98178.56
2023-05-05T12:05:36.691Z,98183.06
2023-05-05T12:07:44.756Z,98185.34
2023-05-05T12:09:52.124Z,98179.31
2023-05-05T12:12:02.916Z,98177.19
2023-05-05T12:14:12.287Z,98181.28
2023-05-05T12:16:20.142Z,98181.66
2023-05-05T12:18:25.060Z,98177.56
2023-05-05T12:20:32.626Z,98177.03
2023-05-05T12:22:37.642Z,98181.38
2023-05-05T12:24:42.996Z,98176.72
2023-05-05T12:26:47.885Z,98177.78
2023-05-05T12:28:55.621Z,98174.47
2023-05-05T12:31:00.800Z,98175.19
2023-05-05T12:33:06.844Z,98175.44
2023-05-05T12:35:13.380Z,98170.41
2023-05-05T12:37:19.331Z,98174.38
2023-05-05T12:39:24.386Z,98182.75
2023-05-05T12:41:28.964Z,98168.28
2023-05-05T12:43:34.984Z,98171.56
2023-05-05T12:45:45.186Z,98169.50
2023-05-05T12:47:50.168Z,98168.44
2023-05-05T12:49:55.182Z,98160.91
2023-05-05T12:52:00.663Z,98163.56
2023-05-05T12:54:07.449Z,98159.19
2023-05-05T12:56:33.570Z,98170.03
2023-05-05T12:58:51.227Z,98177.53
2023-05-05T13:01:13.595Z,98177.25
2023-05-05T13:03:22.227Z,98176.22
2023-05-05T13:05:34.546Z,98161.88
2023-05-05T13:07:40.729Z,98166.59
2023-05-05T13:09:46.191Z,98171.63
2023-05-05T13:11:51.242Z,98164.50
2023-05-05T13:13:56.620Z,98157.69
2023-05-05T13:16:01.507Z,98161.28
2023-05-05T13:18:08.873Z,98158.13
2023-05-05T13:20:14.570Z,98163.91
2023-05-05T13:22:20.071Z,98163.63
2023-05-05T13:24:37.955Z,98158.72
2023-05-05T13:26:47.597Z,98160.50
2023-05-05T13:28:52.258Z,98158.97
2023-05-05T13:30:58.854Z,98160.31
2023-05-05T13:33:05.107Z,98157.63
2023-05-05T13:35:15.529Z,98160.50
2023-05-05T13:37:21.454Z,98154.25
2023-05-05T13:39:26.360Z,98156.22
2023-05-05T13:41:31.366Z,98155.41
2023-05-05T13:43:36.053Z,98158.94
2023-05-05T13:45:41.976Z,98164.81
2023-05-05T13:47:47.131Z,98155.91
2023-05-05T13:49:51.916Z,98155.22
2023-05-05T13:51:59.675Z,98151.16
2023-05-05T13:54:04.855Z,98148.50
2023-05-05T13:56:11.113Z,98146.25
2023-05-05T13:58:17.824Z,98143.19
2023-05-05T14:00:23.404Z,98145.00
2023-05-05T14:02:28.309Z,98138.19
2023-05-05T14:04:33.298Z,98140.72
2023-05-05T14:06:38.595Z,98137.22
2023-05-05T14:08:46.475Z,98132.06
2023-05-05T14:10:52.261Z,98132.50
2023-05-05T14:12:57.400Z,98129.13
2023-05-05T14:15:02.122Z,98121.72
2023-05-05T14:17:07.119Z,98118.69
2023-05-05T14:19:12.021Z,98113.06
2023-05-05T14:21:16.955Z,98112.28
2023-05-05T14:23:21.874Z,98115.22
2023-05-05T14:25:29.224Z,98122.16
2023-05-05T14:27:34.129Z,98116.44
2023-05-05T14:29:39.008Z,98124.13
2023-05-05T14:31:43.959Z,98120.59
2023-05-05T14:33:48.922Z,98122.56
2023-05-05T14:35:53.900Z,98120.75
2023-05-05T14:37:58.813Z,98124.53
2023-05-05T14:40:05.623Z,98120.31
2023-05-05T14:42:13.438Z,98116.69
2023-05-05T14:44:19.166Z,98118.41
2023-05-05T14:46:24.243Z,98115.03
2023-05-05T14:48:29.372Z,98116.00
2023-05-05T14:50:34.052Z,98115.16
2023-05-05T14:52:40.500Z,98114.31
2023-05-05T14:54:45.433Z,98111.38
2023-05-05T14:56:50.355Z,98113.88
2023-05-05T14:58:57.840Z,98110.06
2023-05-05T15:01:03.296Z,98107.94
2023-05-05T15:03:08.337Z,98116.31
2023-05-05T15:05:13.664Z,98114.19
2023-05-05T15:07:18.586Z,98106.03
2023-05-05T15:09:23.468Z,98107.38
2023-05-05T15:11:28.457Z,98112.56
2023-05-05T15:13:33.198Z,98105.03
2023-05-05T15:15:41.357Z,98109.63
2023-05-05T15:17:46.324Z,98107.72
2023-05-05T15:19:51.338Z,98109.66
2023-05-05T15:21:56.219Z,98104.53
2023-05-05T15:24:01.093Z,98094.13
2023-05-05T15:26:06.087Z,98093.13
2023-05-05T15:28:11.156Z,98099.72
2023-05-05T15:30:16.501Z,98096.44
2023-05-05T15:32:24.480Z,98091.25
2023-05-05T15:34:29.373Z,98089.06
2023-05-05T15:36:34.249Z,98088.91
2023-05-05T15:38:43.461Z,98084.19
2023-05-05T15:40:50.164Z,98084.78
2023-05-05T15:42:55.347Z,98084.69
2023-05-05T15:45:02.108Z,98083.03
2023-05-05T15:47:07.378Z,98080.81
2023-05-05T15:49:15.310Z,98075.25
2023-05-05T15:51:20.300Z,98079.47
2023-05-05T15:53:26.917Z,98096.66
2023-05-05T15:55:31.997Z,98092.31
2023-05-05T15:57:39.702Z,98088.47
2023-05-05T15:59:46.768Z,98081.50
2023-05-05T16:01:51.639Z,98069.84
2023-05-05T16:03:58.042Z,98064.13
2023-05-05T16:06:05.854Z,98075.97
2023-05-05T16:08:11.101Z,98085.34
2023-05-05T16:10:17.734Z,98088.94
2023-05-05T16:12:23.370Z,98086.44
2023-05-05T16:14:28.215Z,98087.84
2023-05-05T16:16:33.225Z,98086.56
2023-05-05T16:18:39.472Z,98087.41
2023-05-05T16:20:44.499Z,98090.75
2023-05-05T16:22:51.738Z,98090.34
2023-05-05T16:24:56.614Z,98088.25
2023-05-05T16:27:01.520Z,98092.84
2023-05-05T16:29:06.379Z,98084.06
2023-05-05T16:31:11.985Z,98072.03
2023-05-05T16:33:26.554Z,98075.41
2023-05-05T16:35:40.563Z,98076.81
2023-05-05T16:37:45.924Z,98074.28
2023-05-05T16:39:53.398Z,98071.13
2023-05-05T16:41:58.470Z,98063.00
2023-05-05T16:44:03.384Z,98060.25
2023-05-05T16:46:09.374Z,98065.09
2023-05-05T16:48:14.939Z,98068.28
2023-05-05T16:50:20.221Z,98074.75
2023-05-05T16:52:25.191Z,98076.53
2023-05-05T16:54:29.897Z,98081.25
2023-05-05T16:56:37.426Z,98091.09
2023-05-05T16:58:44.738Z,98084.25
2023-05-05T17:00:49.616Z,98082.03
2023-05-05T17:02:54.528Z,98078.97
2023-05-05T17:04:59.437Z,98081.44
2023-05-05T17:07:04.230Z,98078.53
2023-05-05T17:09:09.125Z,98080.78
2023-05-05T17:11:14.228Z,98068.94
2023-05-05T17:13:23.209Z,98071.72
2023-05-05T17:15:28.169Z,98065.28
2023-05-05T17:17:33.051Z,98060.59
2023-05-05T17:19:38.014Z,98043.72
2023-05-05T17:21:43.084Z,98037.16
2023-05-05T17:23:47.957Z,98039.22
2023-05-05T17:25:52.960Z,98035.44
2023-05-05T17:27:58.113Z,98041.72
2023-05-05T17:30:05.664Z,98046.59
2023-05-05T17:32:10.878Z,98059.00
2023-05-05T17:34:15.895Z,98058.44
2023-05-05T17:36:20.612Z,98060.78
2023-05-05T17:38:25.479Z,98060.47
2023-05-05T17:40:30.571Z,98059.78
2023-05-05T17:42:35.774Z,98067.66
2023-05-05T17:44:40.655Z,98063.09
2023-05-05T17:46:48.144Z,98059.19
2023-05-05T17:48:53.215Z,98059.91
2023-05-05T17:50:57.902Z,98054.88
2023-05-05T17:53:02.791Z,98043.47
2023-05-05T17:55:08.841Z,98044.03
2023-05-05T17:57:13.995Z,98041.28
2023-05-05T17:59:18.945Z,98027.44
2023-05-05T18:01:24.321Z,98026.19
2023-05-05T18:03:32.094Z,98021.16
2023-05-05T18:05:37.124Z,98026.59
2023-05-05T18:07:42.028Z,98015.19
2023-05-05T18:09:46.809Z,98017.25
2023-05-05T18:11:54.112Z,98026.03
2023-05-05T18:13:59.000Z,98028.69
2023-05-05T18:16:03.858Z,98030.06
2023-05-05T18:18:08.886Z,98030.06
2023-05-05T18:20:17.988Z,98037.66
2023-05-05T18:22:22.994Z,98035.16
2023-05-05T18:24:28.324Z,98051.19
2023-05-05T18:26:33.167Z,98051.34
2023-05-05T18:28:39.745Z,98048.97
2023-05-05T18:30:44.725Z,98046.59
2023-05-05T18:32:49.878Z,98043.13
2023-05-05T18:34:54.897Z,98043.13
2023-05-05T18:37:02.539Z,98040.47
2023-05-05T18:39:07.491Z,98044.88
2023-05-05T18:41:12.322Z,98046.03
2023-05-05T18:43:17.702Z,98046.13
2023-05-05T18:45:22.842Z,98053.34
2023-05-05T18:47:28.761Z,98060.00
2023-05-05T18:49:33.825Z,98064.97
2023-05-05T18:51:38.540Z,98068.66
2023-05-05T18:53:46.534Z,98072.28
2023-05-05T18:55:51.610Z,98086.44
2023-05-05T18:57:56.709Z,98079.75
2023-05-05T19:00:01.729Z,98093.31
2023-05-05T19:02:06.752Z,98096.88
2023-05-05T19:04:26.848Z,98110.94
2023-05-05T19:06:35.970Z,98121.63
2023-05-05T19:08:40.901Z,98128.75
2023-05-05T19:10:48.670Z,98132.59
2023-05-05T19:12:53.796Z,98142.09
2023-05-05T19:14:58.708Z,98163.47
2023-05-05T19:17:03.875Z,98173.06
2023-05-05T19:19:10.991Z,98190.47
2023-05-05T19:21:15.989Z,98208.50
2023-05-05T19:23:20.920Z,98222.94
2023-05-05T19:25:25.869Z,98229.72
2023-05-05T19:27:34.060Z,98251.81
2023-05-05T19:29:38.977Z,98252.25
2023-05-05T19:31:43.917Z,98257.94
2023-05-05T19:33:48.995Z,98263.72
2023-05-05T19:35:53.919Z,98261.09
2023-05-05T19:37:59.082Z,98260.69
2023-05-05T19:40:04.201Z,98270.13
2023-05-05T19:42:09.807Z,98274.88
2023-05-05T19:44:17.443Z,98276.53
2023-05-05T19:46:22.748Z,98280.81
2023-05-05T19:48:27.793Z,98288.69
2023-05-05T19:50:32.482Z,98303.25
2023-05-05T19:52:38.501Z,98304.59
2023-05-05T19:54:43.622Z,98320.91
2023-05-05T19:56:48.259Z,98317.44
2023-05-05T19:58:57.776Z,98323.09
2023-05-05T20:01:05.291Z,98316.59
2023-05-05T20:03:10.276Z,98328.34
2023-05-05T20:05:17.473Z,98323.59
2023-05-05T20:07:22.845Z,98330.00
2023-05-05T20:09:27.699Z,98335.59
2023-05-05T20:11:33.061Z,98335.41
2023-05-05T20:13:38.452Z,98343.41
2023-05-05T20:15:43.516Z,98347.69
2023-05-05T20:17:51.326Z,98345.06
2023-05-05T20:19:57.792Z,98350.13
2023-05-05T20:22:02.984Z,98341.16
2023-05-05T20:24:08.106Z,98339.47
2023-05-05T20:26:13.699Z,98333.44
2023-05-05T20:28:18.623Z,98336.03
2023-05-05T20:30:23.503Z,98327.75
2023-05-05T20:32:28.531Z,98327.78
2023-05-05T20:34:35.990Z,98317.59
2023-05-05T20:36:41.030Z,98321.44
2023-05-05T20:38:46.084Z,98310.31
2023-05-05T20:40:51.042Z,98305.38
2023-05-05T20:42:55.880Z,98298.03
2023-05-05T20:45:00.925Z,98300.47
2023-05-05T20:47:06.053Z,98304.22
2023-05-05T20:49:11.015Z,98297.16
2023-05-05T20:51:18.575Z,98300.13
2023-05-05T20:53:28.083Z,98298.97
2023-05-05T20:55:32.935Z,98296.22
2023-05-05T20:57:37.966Z,98294.97
2023-05-05T20:59:42.883Z,98296.34
2023-05-05T21:01:47.796Z,98295.28
2023-05-05T21:03:53.136Z,98295.81
2023-05-05T21:05:57.999Z,98294.56
2023-05-05T21:08:05.549Z,98298.56
2023-05-05T21:10:12.043Z,98301.09
2023-05-05T21:12:17.103Z,98302.47
2023-05-05T21:14:22.201Z,98292.44
2023-05-05T21:16:27.277Z,98291.41
2023-05-05T21:18:31.992Z,98289.72
2023-05-05T21:20:36.920Z,98298.25
2023-05-05T21:22:41.795Z,98297.91
2023-05-05T21:24:49.364Z,98295.16
2023-05-05T21:26:54.884Z,98305.19
2023-05-05T21:28:59.756Z,98306.63
2023-05-05T21:31:20.611Z,98307.88
2023-05-05T21:33:27.513Z,98302.75
2023-05-05T21:35:35.154Z,98298.66
2023-05-05T21:37:40.703Z,98303.28
2023-05-05T21:39:45.594Z,98299.28
2023-05-05T21:41:53.247Z,98294.66
2023-05-05T21:43:58.160Z,98294.44
2023-05-05T21:46:03.691Z,98290.69
2023-05-05T21:48:09.271Z,98281.19
2023-05-05T21:50:14.857Z,98293.31
2023-05-05T21:52:19.837Z,98288.97
2023-05-05T21:54:24.752Z,98289.94
2023-05-05T21:56:29.685Z,98284.78
2023-05-05T21:58:37.612Z,98289.41
2023-05-05T22:00:43.827Z,98286.97
2023-05-05T22:02:48.820Z,98291.53
2023-05-05T22:04:53.731Z,98284.88
2023-05-05T22:06:58.681Z,98295.91
2023-05-05T22:09:03.561Z,98295.38
2023-05-05T22:11:08.621Z,98301.03
2023-05-05T22:13:14.800Z,98298.91
2023-05-05T22:15:25.400Z,98304.25
2023-05-05T22:17:32.447Z,98300.78
2023-05-05T22:19:37.370Z,98302.59
2023-05-05T22:21:45.344Z,98303.13
2023-05-05T22:23:50.267Z,98304.09
2023-05-05T22:25:55.238Z,98309.13
2023-05-05T22:28:00.195Z,98315.03
2023-05-05T22:30:05.113Z,98311.34
2023-05-05T22:32:12.756Z,98314.53
2023-05-05T22:34:18.842Z,98306.56
2023-05-05T22:36:23.683Z,98307.28
2023-05-05T22:38:28.597Z,98302.84
2023-05-05T22:40:33.602Z,98308.84
2023-05-05T22:42:38.614Z,98304.34
2023-05-05T22:44:43.344Z,98302.22
2023-05-05T22:46:48.292Z,98294.44
2023-05-05T22:48:55.757Z,98295.28
2023-05-05T22:51:00.792Z,98296.34
2023-05-05T22:53:05.680Z,98291.91
2023-05-05T22:55:12.939Z,98292.88
2023-05-05T22:57:17.916Z,98301.03
2023-05-05T22:59:22.828Z,98301.03
2023-05-05T23:01:28.206Z,98294.00
2023-05-05T23:03:33.188Z,98294.88
2023-05-05T23:05:40.690Z,98294.75
2023-05-05T23:07:45.717Z,98296.53
2023-05-05T23:09:50.908Z,98302.94
2023-05-05T23:11:55.598Z,98299.78
2023-05-05T23:14:00.513Z,98308.56
2023-05-05T23:16:05.637Z,98304.25
2023-05-05T23:18:10.520Z,98299.00
2023-05-05T23:20:15.618Z,98299.84
2023-05-05T23:22:22.907Z,98292.16
2023-05-05T23:24:27.786Z,98291.41
2023-05-05T23:26:32.680Z,98293.19
2023-05-05T23:28:37.598Z,98292.38
2023-05-05T23:30:45.194Z,98293.13
2023-05-05T23:32:50.153Z,98290.50
2023-05-05T23:34:54.881Z,98291.53
2023-05-05T23:36:59.739Z,98294.16
2023-05-05T23:39:07.540Z,98293.94
2023-05-05T23:41:12.439Z,98297.63
2023-05-05T23:43:17.264Z,98294.25
2023-05-05T23:45:22.115Z,98297.06
2023-05-05T23:47:27.153Z,98299.81
2023-05-05T23:49:32.094Z,98302.66
2023-05-05T23:51:37.200Z,98311.03
2023-05-05T23:53:42.353Z,98317.25
2023-05-05T23:55:49.596Z,98315.94
2023-05-05T23:57:54.525Z,98320.28
2023-05-05T23:59:59.394Z,98332.78
